sensor_id;sensor_type;location;lat;lon;timestamp;pressure;altitude;pressure_sealevel;temperature;humidity
64644;BME280;51056;50.330;7.914;2022-10-13T00:00:59;101263.13;;;8.59;88.90
64644;BME280;51056;50.330;7.914;2022-10-13T00:04:03;101258.47;;;8.68;88.25
64644;BME280;51056;50.330;7.914;2022-10-13T00:07:07;101259.50;;;8.64;88.05
64644;BME280;51056;50.330;7.914;2022-10-13T00:10:11;101259.38;;;8.68;88.00
64644;BME280;51056;50.330;7.914;2022-10-13T00:13:14;101260.53;;;8.58;88.39
64644;BME280;51056;50.330;7.914;2022-10-13T00:16:20;101257.59;;;8.69;88.20
64644;BME280;51056;50.330;7.914;2022-10-13T00:19:25;101251.00;;;8.58;87.84
64644;BME280;51056;50.330;7.914;2022-10-13T00:22:30;101250.44;;;8.49;88.49
64644;BME280;51056;50.330;7.914;2022-10-13T00:25:34;101243.69;;;8.42;88.80
64644;BME280;51056;50.330;7.914;2022-10-13T00:28:37;101249.66;;;8.45;88.89
64644;BME280;51056;50.330;7.914;2022-10-13T00:31:41;101249.63;;;8.47;88.29
64644;BME280;51056;50.330;7.914;2022-10-13T00:34:44;101249.56;;;8.48;87.77
64644;BME280;51056;50.330;7.914;2022-10-13T00:37:48;101246.94;;;8.48;87.76
64644;BME280;51056;50.330;7.914;2022-10-13T00:40:53;101244.34;;;8.48;87.40
64644;BME280;51056;50.330;7.914;2022-10-13T00:44:05;101237.72;;;8.38;87.53
64644;BME280;51056;50.330;7.914;2022-10-13T00:47:09;101242.81;;;8.43;87.60
64644;BME280;51056;50.330;7.914;2022-10-13T00:50:15;101247.03;;;8.45;87.83
64644;BME280;51056;50.330;7.914;2022-10-13T00:53:23;101246.25;;;8.43;87.74
64644;BME280;51056;50.330;7.914;2022-10-13T00:56:29;101246.88;;;8.23;88.19
64644;BME280;51056;50.330;7.914;2022-10-13T00:59:32;101249.22;;;8.31;87.97
64644;BME280;51056;50.330;7.914;2022-10-13T01:02:37;101251.81;;;8.31;87.90
64644;BME280;51056;50.330;7.914;2022-10-13T01:05:42;101252.56;;;8.34;87.71
64644;BME280;51056;50.330;7.914;2022-10-13T01:08:45;101256.38;;;8.24;87.62
64644;BME280;51056;50.330;7.914;2022-10-13T01:11:56;101256.31;;;8.26;87.61
64644;BME280;51056;50.330;7.914;2022-10-13T01:15:08;101244.38;;;8.19;87.31
64644;BME280;51056;50.330;7.914;2022-10-13T01:35:43;101229.94;;;8.08;87.83
64644;BME280;51056;50.330;7.914;2022-10-13T01:39:18;101231.44;;;8.15;87.67
64644;BME280;51056;50.330;7.914;2022-10-13T01:42:35;101231.44;;;8.15;87.51
64644;BME280;51056;50.330;7.914;2022-10-13T01:45:57;101224.28;;;8.22;87.29
64644;BME280;51056;50.330;7.914;2022-10-13T01:49:08;101212.56;;;8.09;88.04
64644;BME280;51056;50.330;7.914;2022-10-13T01:52:17;101207.31;;;8.10;87.87
64644;BME280;51056;50.330;7.914;2022-10-13T01:55:23;101202.19;;;8.07;88.08
64644;BME280;51056;50.330;7.914;2022-10-13T01:58:29;101197.84;;;8.08;87.52
64644;BME280;51056;50.330;7.914;2022-10-13T02:08:46;101195.38;;;8.03;86.53
64644;BME280;51056;50.330;7.914;2022-10-13T02:11:51;101196.03;;;8.10;86.25
64644;BME280;51056;50.330;7.914;2022-10-13T02:14:58;101188.38;;;8.05;86.38
64644;BME280;51056;50.330;7.914;2022-10-13T02:18:04;101181.75;;;7.95;86.43
64644;BME280;51056;50.330;7.914;2022-10-13T02:21:09;101186.66;;;8.04;86.39
64644;BME280;51056;50.330;7.914;2022-10-13T02:24:12;101186.47;;;8.10;85.64
64644;BME280;51056;50.330;7.914;2022-10-13T02:27:17;101182.16;;;8.09;85.56
64644;BME280;51056;50.330;7.914;2022-10-13T02:30:23;101182.22;;;8.08;85.93
64644;BME280;51056;50.330;7.914;2022-10-13T02:33:28;101185.94;;;7.99;86.67
64644;BME280;51056;50.330;7.914;2022-10-13T02:36:32;101186.00;;;7.98;87.19
64644;BME280;51056;50.330;7.914;2022-10-13T02:39:35;101188.38;;;8.05;86.64
64644;BME280;51056;50.330;7.914;2022-10-13T02:42:39;101185.84;;;8.02;86.67
64644;BME280;51056;50.330;7.914;2022-10-13T02:45:42;101184.66;;;8.12;86.40
64644;BME280;51056;50.330;7.914;2022-10-13T02:48:45;101180.75;;;8.26;86.08
64644;BME280;51056;50.330;7.914;2022-10-13T02:51:48;101174.03;;;8.19;85.65
64644;BME280;51056;50.330;7.914;2022-10-13T02:54:52;101172.44;;;8.14;84.63
64644;BME280;51056;50.330;7.914;2022-10-13T02:57:55;101165.84;;;8.04;84.44
64644;BME280;51056;50.330;7.914;2022-10-13T03:01:11;101158.81;;;8.06;84.48
64644;BME280;51056;50.330;7.914;2022-10-13T03:04:16;101169.31;;;8.03;84.38
64644;BME280;51056;50.330;7.914;2022-10-13T03:07:21;101169.22;;;8.06;84.18
64644;BME280;51056;50.330;7.914;2022-10-13T03:10:24;101166.88;;;7.99;84.46
64644;BME280;51056;50.330;7.914;2022-10-13T03:13:29;101164.72;;;8.11;84.54
64644;BME280;51056;50.330;7.914;2022-10-13T03:16:43;101164.72;;;8.11;84.31
64644;BME280;51056;50.330;7.914;2022-10-13T03:19:46;101158.41;;;8.19;83.86
64644;BME280;51056;50.330;7.914;2022-10-13T03:22:58;101164.53;;;8.18;83.97
64644;BME280;51056;50.330;7.914;2022-10-13T03:26:02;101170.03;;;8.08;84.02
64644;BME280;51056;50.330;7.914;2022-10-13T03:29:10;101169.69;;;8.19;84.43
64644;BME280;51056;50.330;7.914;2022-10-13T03:32:13;101170.53;;;8.20;84.12
64644;BME280;51056;50.330;7.914;2022-10-13T03:35:16;101169.84;;;8.14;84.23
64644;BME280;51056;50.330;7.914;2022-10-13T03:38:20;101174.75;;;8.24;84.18
64644;BME280;51056;50.330;7.914;2022-10-13T03:41:23;101172.94;;;8.26;84.08
64644;BME280;51056;50.330;7.914;2022-10-13T03:44:27;101168.56;;;8.26;83.92
64644;BME280;51056;50.330;7.914;2022-10-13T03:47:30;101171.31;;;8.23;84.32
64644;BME280;51056;50.330;7.914;2022-10-13T03:50:36;101169.78;;;8.16;84.49
64644;BME280;51056;50.330;7.914;2022-10-13T03:53:40;101174.91;;;8.19;84.45
64644;BME280;51056;50.330;7.914;2022-10-13T03:56:43;101176.94;;;8.09;84.79
64644;BME280;51056;50.330;7.914;2022-10-13T03:59:46;101181.13;;;8.13;84.62
64644;BME280;51056;50.330;7.914;2022-10-13T04:03:25;101182.88;;;8.14;84.64
64644;BME280;51056;50.330;7.914;2022-10-13T04:06:32;101172.44;;;8.14;84.30
64644;BME280;51056;50.330;7.914;2022-10-13T04:09:35;101174.44;;;8.06;84.75
64644;BME280;51056;50.330;7.914;2022-10-13T04:12:38;101173.19;;;8.18;84.34
64644;BME280;51056;50.330;7.914;2022-10-13T04:15:41;101174.91;;;8.19;84.27
64644;BME280;51056;50.330;7.914;2022-10-13T04:18:44;101179.53;;;8.09;84.29
64644;BME280;51056;50.330;7.914;2022-10-13T04:21:48;101174.25;;;8.12;84.51
64644;BME280;51056;50.330;7.914;2022-10-13T04:24:51;101171.63;;;8.12;84.42
64644;BME280;51056;50.330;7.914;2022-10-13T04:27:57;101167.25;;;8.14;84.33
64644;BME280;51056;50.330;7.914;2022-10-13T04:31:46;101167.34;;;8.11;84.12
64644;BME280;51056;50.330;7.914;2022-10-13T04:39:08;101152.38;;;7.90;85.01
64644;BME280;51056;50.330;7.914;2022-10-13T04:42:11;101152.84;;;8.03;84.67
64644;BME280;51056;50.330;7.914;2022-10-13T04:45:16;101138.16;;;8.00;84.41
64644;BME280;51056;50.330;7.914;2022-10-13T04:48:26;101144.09;;;8.05;84.60
64644;BME280;51056;50.330;7.914;2022-10-13T04:51:29;101135.22;;;8.11;84.38
64644;BME280;51056;50.330;7.914;2022-10-13T04:54:32;101136.06;;;8.11;84.25
64644;BME280;51056;50.330;7.914;2022-10-13T04:57:35;101131.16;;;8.02;84.51
64644;BME280;51056;50.330;7.914;2022-10-13T05:00:45;101125.59;;;7.86;85.02
64644;BME280;51056;50.330;7.914;2022-10-13T05:03:51;101119.16;;;7.98;84.73
64644;BME280;51056;50.330;7.914;2022-10-13T05:06:54;101118.34;;;7.96;84.88
64644;BME280;51056;50.330;7.914;2022-10-13T05:09:58;101121.84;;;7.95;84.88
64644;BME280;51056;50.330;7.914;2022-10-13T05:13:01;101117.28;;;8.02;84.97
64644;BME280;51056;50.330;7.914;2022-10-13T05:16:10;101118.13;;;8.02;84.44
64644;BME280;51056;50.330;7.914;2022-10-13T05:19:13;101105.13;;;8.02;84.36
64644;BME280;51056;50.330;7.914;2022-10-13T05:22:19;101101.00;;;7.95;84.97
64644;BME280;51056;50.330;7.914;2022-10-13T05:25:23;101100.63;;;8.07;84.83
64644;BME280;51056;50.330;7.914;2022-10-13T05:28:26;101098.63;;;7.87;85.10
64644;BME280;51056;50.330;7.914;2022-10-13T05:31:32;101101.31;;;7.86;85.39
64644;BME280;51056;50.330;7.914;2022-10-13T05:34:38;101102.31;;;7.82;85.90
64644;BME280;51056;50.330;7.914;2022-10-13T05:37:42;101107.91;;;7.69;87.04
64644;BME280;51056;50.330;7.914;2022-10-13T05:40:46;101109.13;;;7.86;86.57
64644;BME280;51056;50.330;7.914;2022-10-13T05:43:49;101113.75;;;8.04;85.75
64644;BME280;51056;50.330;7.914;2022-10-13T05:46:56;101123.16;;;8.08;85.17
64644;BME280;51056;50.330;7.914;2022-10-13T05:50:01;101124.06;;;8.07;85.83
64644;BME280;51056;50.330;7.914;2022-10-13T05:53:05;101128.19;;;8.13;85.66
64644;BME280;51056;50.330;7.914;2022-10-13T05:56:15;101118.53;;;7.90;86.33
64644;BME280;51056;50.330;7.914;2022-10-13T05:59:20;101122.19;;;7.56;88.70
64644;BME280;51056;50.330;7.914;2022-10-13T06:02:27;101129.50;;;7.72;88.57
64644;BME280;51056;50.330;7.914;2022-10-13T06:05:36;101118.91;;;7.78;88.05
64644;BME280;51056;50.330;7.914;2022-10-13T06:08:40;101120.94;;;7.96;87.69
64644;BME280;51056;50.330;7.914;2022-10-13T06:11:44;101116.25;;;8.07;87.52
64644;BME280;51056;50.330;7.914;2022-10-13T06:14:48;101120.06;;;8.24;86.96
64644;BME280;51056;50.330;7.914;2022-10-13T06:17:51;101117.16;;;8.33;87.08
64644;BME280;51056;50.330;7.914;2022-10-13T06:20:55;101107.50;;;8.35;86.10
64644;BME280;51056;50.330;7.914;2022-10-13T06:23:59;101101.28;;;8.41;85.79
64644;BME280;51056;50.330;7.914;2022-10-13T06:27:03;101109.13;;;8.39;85.78
64644;BME280;51056;50.330;7.914;2022-10-13T06:30:06;101113.28;;;8.45;85.71
64644;BME280;51056;50.330;7.914;2022-10-13T06:33:12;101116.22;;;8.34;86.01
64644;BME280;51056;50.330;7.914;2022-10-13T06:36:17;101116.53;;;8.25;86.75
64644;BME280;51056;50.330;7.914;2022-10-13T06:39:20;101118.22;;;8.26;86.84
64644;BME280;51056;50.330;7.914;2022-10-13T06:42:23;101113.94;;;8.25;87.04
64644;BME280;51056;50.330;7.914;2022-10-13T06:45:44;101120.69;;;8.30;87.21
64644;BME280;51056;50.330;7.914;2022-10-13T06:48:48;101109.84;;;8.18;87.52
64644;BME280;51056;50.330;7.914;2022-10-13T06:51:53;101116.28;;;8.06;88.41
64644;BME280;51056;50.330;7.914;2022-10-13T06:54:57;101116.38;;;8.03;88.86
64644;BME280;51056;50.330;7.914;2022-10-13T06:58:01;101113.56;;;8.10;88.83
64644;BME280;51056;50.330;7.914;2022-10-13T07:01:05;101107.38;;;8.13;88.87
64644;BME280;51056;50.330;7.914;2022-10-13T07:04:08;101088.91;;;8.21;89.01
64644;BME280;51056;50.330;7.914;2022-10-13T07:07:13;101092.72;;;8.35;88.60
64644;BME280;51056;50.330;7.914;2022-10-13T07:10:16;101090.91;;;8.37;88.08
64644;BME280;51056;50.330;7.914;2022-10-13T07:13:22;101086.28;;;8.47;87.85
64644;BME280;51056;50.330;7.914;2022-10-13T07:16:25;101082.13;;;8.67;86.95
64644;BME280;51056;50.330;7.914;2022-10-13T07:19:29;101085.97;;;8.56;86.66
64644;BME280;51056;50.330;7.914;2022-10-13T07:22:33;101092.81;;;8.59;86.71
64644;BME280;51056;50.330;7.914;2022-10-13T07:25:39;101090.44;;;8.53;86.68
64644;BME280;51056;50.330;7.914;2022-10-13T07:28:45;101091.69;;;8.66;85.80
64644;BME280;51056;50.330;7.914;2022-10-13T07:31:49;101091.63;;;8.68;85.65
64644;BME280;51056;50.330;7.914;2022-10-13T07:34:52;101085.53;;;8.69;85.31
64644;BME280;51056;50.330;7.914;2022-10-13T07:37:57;101084.47;;;8.74;85.30
64644;BME280;51056;50.330;7.914;2022-10-13T07:41:28;101087.84;;;8.76;85.84
64644;BME280;51056;50.330;7.914;2022-10-13T07:44:32;101094.34;;;8.65;85.89
64644;BME280;51056;50.330;7.914;2022-10-13T07:47:35;101097.53;;;8.73;85.55
64644;BME280;51056;50.330;7.914;2022-10-13T07:50:39;101081.16;;;8.69;85.83
64644;BME280;51056;50.330;7.914;2022-10-13T07:53:43;101095.38;;;8.60;86.39
64644;BME280;51056;50.330;7.914;2022-10-13T07:56:52;101094.47;;;8.61;86.64
64644;BME280;51056;50.330;7.914;2022-10-13T07:59:56;101091.41;;;8.74;86.70
64644;BME280;51056;50.330;7.914;2022-10-13T08:02:59;101096.47;;;8.78;86.21
64644;BME280;51056;50.330;7.914;2022-10-13T08:06:03;101089.44;;;8.80;86.18
64644;BME280;51056;50.330;7.914;2022-10-13T08:09:07;101090.22;;;8.84;86.60
64644;BME280;51056;50.330;7.914;2022-10-13T08:12:11;101085.25;;;8.76;88.02
64644;BME280;51056;50.330;7.914;2022-10-13T08:15:15;101075.00;;;8.95;87.86
64644;BME280;51056;50.330;7.914;2022-10-13T08:18:20;101081.34;;;8.88;89.55
64644;BME280;51056;50.330;7.914;2022-10-13T08:21:23;101079.28;;;8.73;90.13
64644;BME280;51056;50.330;7.914;2022-10-13T08:24:27;101088.25;;;8.66;90.14
64644;BME280;51056;50.330;7.914;2022-10-13T08:27:31;101082.81;;;8.72;89.31
64644;BME280;51056;50.330;7.914;2022-10-13T08:30:34;101081.56;;;8.82;90.01
64644;BME280;51056;50.330;7.914;2022-10-13T08:33:38;101085.31;;;8.75;89.69
64644;BME280;51056;50.330;7.914;2022-10-13T08:36:45;101086.25;;;8.97;88.73
64644;BME280;51056;50.330;7.914;2022-10-13T08:39:49;101091.13;;;9.06;87.83
64644;BME280;51056;50.330;7.914;2022-10-13T08:42:52;101085.19;;;9.25;86.75
64644;BME280;51056;50.330;7.914;2022-10-13T08:45:58;101089.00;;;9.40;85.80
64644;BME280;51056;50.330;7.914;2022-10-13T08:49:07;101082.81;;;9.42;86.17
64644;BME280;51056;50.330;7.914;2022-10-13T08:52:16;101089.78;;;9.42;86.74
64644;BME280;51056;50.330;7.914;2022-10-13T08:55:40;101080.25;;;9.63;85.94
64644;BME280;51056;50.330;7.914;2022-10-13T08:58:44;101090.34;;;9.72;85.18
64644;BME280;51056;50.330;7.914;2022-10-13T09:01:54;101088.41;;;9.77;84.85
64644;BME280;51056;50.330;7.914;2022-10-13T09:05:00;101079.53;;;9.81;84.47
64644;BME280;51056;50.330;7.914;2022-10-13T09:08:12;101082.94;;;9.83;84.61
64644;BME280;51056;50.330;7.914;2022-10-13T09:11:19;101080.25;;;9.85;84.12
64644;BME280;51056;50.330;7.914;2022-10-13T09:14:29;101075.38;;;9.97;83.80
64644;BME280;51056;50.330;7.914;2022-10-13T09:17:35;101064.81;;;10.00;83.87
64644;BME280;51056;50.330;7.914;2022-10-13T09:20:39;101061.16;;;10.05;84.07
64644;BME280;51056;50.330;7.914;2022-10-13T09:23:44;101059.34;;;10.07;83.69
64644;BME280;51056;50.330;7.914;2022-10-13T09:26:48;101062.50;;;10.15;84.29
64644;BME280;51056;50.330;7.914;2022-10-13T09:29:52;101060.25;;;10.06;84.57
64644;BME280;51056;50.330;7.914;2022-10-13T09:36:15;101062.50;;;10.15;83.77
64644;BME280;51056;50.330;7.914;2022-10-13T09:39:22;101061.69;;;10.13;83.46
64644;BME280;51056;50.330;7.914;2022-10-13T09:42:28;101063.13;;;9.99;84.09
64644;BME280;51056;50.330;7.914;2022-10-13T09:45:41;101067.25;;;10.05;84.17
64644;BME280;51056;50.330;7.914;2022-10-13T09:48:48;101049.69;;;10.09;84.41
64644;BME280;51056;50.330;7.914;2022-10-13T09:52:17;101037.97;;;10.17;84.23
64644;BME280;51056;50.330;7.914;2022-10-13T09:58:39;101031.94;;;10.37;85.12
64644;BME280;51056;50.330;7.914;2022-10-13T10:01:46;101032.38;;;10.47;84.64
64644;BME280;51056;50.330;7.914;2022-10-13T10:04:55;101023.09;;;10.60;83.92
64644;BME280;51056;50.330;7.914;2022-10-13T10:11:40;101027.38;;;10.82;83.17
64644;BME280;51056;50.330;7.914;2022-10-13T10:14:45;101025.94;;;10.93;83.41
64644;BME280;51056;50.330;7.914;2022-10-13T10:18:00;101026.78;;;10.94;83.15
64644;BME280;51056;50.330;7.914;2022-10-13T10:21:09;101037.16;;;10.77;83.99
64644;BME280;51056;50.330;7.914;2022-10-13T10:24:45;101034.19;;;10.84;83.84
64644;BME280;51056;50.330;7.914;2022-10-13T10:31:09;101022.09;;;11.01;84.01
64644;BME280;51056;50.330;7.914;2022-10-13T10:34:36;101026.31;;;11.05;84.32
64644;BME280;51056;50.330;7.914;2022-10-13T10:37:52;101014.47;;;11.15;84.04
64644;BME280;51056;50.330;7.914;2022-10-13T10:44:43;100995.22;;;11.16;84.62
64644;BME280;51056;50.330;7.914;2022-10-13T10:47:54;100999.69;;;11.33;84.24
64644;BME280;51056;50.330;7.914;2022-10-13T10:51:00;100996.44;;;11.45;83.17
64644;BME280;51056;50.330;7.914;2022-10-13T10:54:21;100992.25;;;11.43;83.04
64644;BME280;51056;50.330;7.914;2022-10-13T11:10:36;100954.63;;;11.97;83.17
64644;BME280;51056;50.330;7.914;2022-10-13T11:14:00;100946.75;;;11.97;82.72
64644;BME280;51056;50.330;7.914;2022-10-13T11:17:15;100940.34;;;12.03;82.54
64644;BME280;51056;50.330;7.914;2022-10-13T11:26:41;100929.31;;;12.14;83.53
64644;BME280;51056;50.330;7.914;2022-10-13T11:32:48;100924.84;;;12.31;83.74
64644;BME280;51056;50.330;7.914;2022-10-13T11:47:01;100906.97;;;12.71;81.46
64644;BME280;51056;50.330;7.914;2022-10-13T11:50:20;100904.59;;;12.83;82.24
64644;BME280;51056;50.330;7.914;2022-10-13T11:53:54;100894.44;;;12.92;81.26
64644;BME280;51056;50.330;7.914;2022-10-13T11:57:16;100890.09;;;13.07;81.04
64644;BME280;51056;50.330;7.914;2022-10-13T12:00:20;100887.44;;;13.23;80.19
64644;BME280;51056;50.330;7.914;2022-10-13T12:03:28;100887.13;;;13.29;79.67
64644;BME280;51056;50.330;7.914;2022-10-13T12:06:33;100874.09;;;13.28;80.06
64644;BME280;51056;50.330;7.914;2022-10-13T12:09:50;100872.25;;;13.44;79.42
64644;BME280;51056;50.330;7.914;2022-10-13T12:12:55;100854.78;;;13.43;80.05
64644;BME280;51056;50.330;7.914;2022-10-13T12:16:06;100855.34;;;13.34;80.68
64644;BME280;51056;50.330;7.914;2022-10-13T12:19:23;100845.41;;;13.39;81.40
64644;BME280;51056;50.330;7.914;2022-10-13T12:22:29;100851.06;;;13.47;81.26
64644;BME280;51056;50.330;7.914;2022-10-13T12:25:34;100843.47;;;13.57;81.33
64644;BME280;51056;50.330;7.914;2022-10-13T12:28:59;100846.13;;;13.85;80.32
64644;BME280;51056;50.330;7.914;2022-10-13T12:32:21;100838.59;;;14.22;80.30
64644;BME280;51056;50.330;7.914;2022-10-13T12:35:27;100841.66;;;14.57;79.09
64644;BME280;51056;50.330;7.914;2022-10-13T12:38:31;100831.50;;;14.65;77.77
64644;BME280;51056;50.330;7.914;2022-10-13T12:41:37;100823.34;;;14.56;78.01
64644;BME280;51056;50.330;7.914;2022-10-13T12:44:43;100823.06;;;14.46;78.27
64644;BME280;51056;50.330;7.914;2022-10-13T12:47:49;100826.81;;;14.56;77.84
64644;BME280;51056;50.330;7.914;2022-10-13T12:50:53;100834.13;;;14.65;77.81
64644;BME280;51056;50.330;7.914;2022-10-13T12:53:56;100825.69;;;14.60;78.02
64644;BME280;51056;50.330;7.914;2022-10-13T12:57:03;100816.28;;;14.83;78.49
64644;BME280;51056;50.330;7.914;2022-10-13T13:00:27;100815.63;;;15.07;77.53
64644;BME280;51056;50.330;7.914;2022-10-13T13:03:31;100813.94;;;15.19;76.65
64644;BME280;51056;50.330;7.914;2022-10-13T13:06:36;100803.22;;;15.47;75.72
64644;BME280;51056;50.330;7.914;2022-10-13T13:09:41;100802.34;;;15.74;73.61
64644;BME280;51056;50.330;7.914;2022-10-13T13:12:47;100792.84;;;15.71;73.16
64644;BME280;51056;50.330;7.914;2022-10-13T13:15:53;100798.44;;;15.79;72.22
64644;BME280;51056;50.330;7.914;2022-10-13T13:18:56;100797.66;;;15.90;71.62
64644;BME280;51056;50.330;7.914;2022-10-13T13:22:00;100790.81;;;15.88;72.81
64644;BME280;51056;50.330;7.914;2022-10-13T13:25:03;100789.53;;;16.06;73.30
64644;BME280;51056;50.330;7.914;2022-10-13T13:28:11;100788.31;;;16.23;72.69
64644;BME280;51056;50.330;7.914;2022-10-13T13:31:20;100783.47;;;16.17;70.91
64644;BME280;51056;50.330;7.914;2022-10-13T13:34:24;100787.94;;;16.03;70.44
64644;BME280;51056;50.330;7.914;2022-10-13T13:37:35;100783.91;;;16.11;68.58
64644;BME280;51056;50.330;7.914;2022-10-13T13:40:39;100782.16;;;16.35;67.88
64644;BME280;51056;50.330;7.914;2022-10-13T13:43:43;100771.94;;;16.55;67.81
64644;BME280;51056;50.330;7.914;2022-10-13T13:47:20;100774.25;;;16.35;66.93
64644;BME280;51056;50.330;7.914;2022-10-13T13:50:26;100781.72;;;16.41;66.94
64644;BME280;51056;50.330;7.914;2022-10-13T13:53:35;100773.63;;;16.56;66.56
64644;BME280;51056;50.330;7.914;2022-10-13T13:56:38;100770.81;;;16.70;65.41
64644;BME280;51056;50.330;7.914;2022-10-13T13:59:44;100764.31;;;16.63;65.25
64644;BME280;51056;50.330;7.914;2022-10-13T14:02:48;100760.56;;;16.65;64.59
64644;BME280;51056;50.330;7.914;2022-10-13T14:05:53;100758.50;;;16.58;65.29
64644;BME280;51056;50.330;7.914;2022-10-13T14:08:56;100759.97;;;16.38;66.12
64644;BME280;51056;50.330;7.914;2022-10-13T14:12:01;100754.19;;;16.09;66.71
64644;BME280;51056;50.330;7.914;2022-10-13T14:35:45;100752.91;;;14.99;74.61
64644;BME280;51056;50.330;7.914;2022-10-13T14:43:45;100749.63;;;14.83;74.55
64644;BME280;51056;50.330;7.914;2022-10-13T14:47:01;100749.19;;;14.76;74.42
64644;BME280;51056;50.330;7.914;2022-10-13T14:50:26;100750.91;;;14.77;74.51
64644;BME280;51056;50.330;7.914;2022-10-13T14:53:52;100738.97;;;14.72;75.68
64644;BME280;51056;50.330;7.914;2022-10-13T14:56:55;100739.38;;;14.65;76.14
64644;BME280;51056;50.330;7.914;2022-10-13T15:00:08;100736.84;;;14.64;79.11
64644;BME280;51056;50.330;7.914;2022-10-13T15:03:38;100736.44;;;14.70;80.74
64644;BME280;51056;50.330;7.914;2022-10-13T15:06:59;100741.81;;;14.69;81.66
64644;BME280;51056;50.330;7.914;2022-10-13T15:10:33;100739.38;;;14.65;86.13
64644;BME280;51056;50.330;7.914;2022-10-13T15:13:55;100744.84;;;14.62;84.96
64644;BME280;51056;50.330;7.914;2022-10-13T15:17:07;100740.00;;;14.56;85.34
64644;BME280;51056;50.330;7.914;2022-10-13T15:20:17;100742.69;;;14.55;86.76
64644;BME280;51056;50.330;7.914;2022-10-13T15:23:56;100739.22;;;14.54;86.72
64644;BME280;51056;50.330;7.914;2022-10-13T15:27:15;100743.19;;;14.47;86.84
64644;BME280;51056;50.330;7.914;2022-10-13T15:30:46;100735.97;;;14.51;87.95
64644;BME280;51056;50.330;7.914;2022-10-13T15:33:57;100743.19;;;14.47;88.24
64644;BME280;51056;50.330;7.914;2022-10-13T15:37:24;100739.28;;;14.40;87.51
64644;BME280;51056;50.330;7.914;2022-10-13T15:45:31;100745.00;;;14.32;88.60
64644;BME280;51056;50.330;7.914;2022-10-13T15:48:35;100747.00;;;14.29;92.46
64644;BME280;51056;50.330;7.914;2022-10-13T15:52:06;100760.34;;;14.26;92.76
64644;BME280;51056;50.330;7.914;2022-10-13T15:55:14;100769.00;;;14.28;93.58
64644;BME280;51056;50.330;7.914;2022-10-13T15:58:23;100771.28;;;14.05;94.49
64644;BME280;51056;50.330;7.914;2022-10-13T16:01:27;100777.41;;;13.91;96.52
64644;BME280;51056;50.330;7.914;2022-10-13T16:04:32;100779.84;;;13.80;95.27
64644;BME280;51056;50.330;7.914;2022-10-13T16:07:38;100784.00;;;13.70;94.19
64644;BME280;51056;50.330;7.914;2022-10-13T16:10:43;100777.78;;;13.71;92.72
64644;BME280;51056;50.330;7.914;2022-10-13T16:13:48;100775.28;;;13.69;93.60
64644;BME280;51056;50.330;7.914;2022-10-13T16:16:51;100772.19;;;13.63;95.04
64644;BME280;51056;50.330;7.914;2022-10-13T16:19:55;100773.28;;;13.59;95.03
64644;BME280;51056;50.330;7.914;2022-10-13T16:22:59;100775.28;;;13.69;96.08
64644;BME280;51056;50.330;7.914;2022-10-13T16:26:04;100765.41;;;13.73;95.86
64644;BME280;51056;50.330;7.914;2022-10-13T16:29:09;100775.75;;;13.76;97.02
64644;BME280;51056;50.330;7.914;2022-10-13T16:32:17;100777.16;;;13.82;96.80
64644;BME280;51056;50.330;7.914;2022-10-13T16:35:23;100777.72;;;13.72;97.67
64644;BME280;51056;50.330;7.914;2022-10-13T16:38:26;100774.97;;;13.74;97.54
64644;BME280;51056;50.330;7.914;2022-10-13T16:41:31;100775.81;;;13.75;97.24
64644;BME280;51056;50.330;7.914;2022-10-13T16:44:34;100769.81;;;13.72;97.11
64644;BME280;51056;50.330;7.914;2022-10-13T16:47:38;100774.03;;;13.75;96.40
64644;BME280;51056;50.330;7.914;2022-10-13T16:50:41;100768.31;;;13.68;97.04
64644;BME280;51056;50.330;7.914;2022-10-13T16:53:52;100770.19;;;13.66;97.01
64644;BME280;51056;50.330;7.914;2022-10-13T16:56:56;100781.44;;;13.68;97.47
64644;BME280;51056;50.330;7.914;2022-10-13T17:00:00;100772.00;;;13.66;97.26
64644;BME280;51056;50.330;7.914;2022-10-13T17:03:08;100778.63;;;13.71;96.76
64644;BME280;51056;50.330;7.914;2022-10-13T17:06:12;100783.34;;;13.66;96.75
64644;BME280;51056;50.330;7.914;2022-10-13T17:09:16;100769.53;;;13.63;96.52
64644;BME280;51056;50.330;7.914;2022-10-13T17:12:22;100778.53;;;13.59;97.04
64644;BME280;51056;50.330;7.914;2022-10-13T17:15:26;100776.19;;;13.54;97.29
64644;BME280;51056;50.330;7.914;2022-10-13T17:18:29;100776.78;;;13.59;96.81
64644;BME280;51056;50.330;7.914;2022-10-13T17:21:33;100776.00;;;13.57;96.60
64644;BME280;51056;50.330;7.914;2022-10-13T17:24:37;100779.59;;;13.56;96.74
64644;BME280;51056;50.330;7.914;2022-10-13T17:27:44;100772.63;;;13.55;96.48
64644;BME280;51056;50.330;7.914;2022-10-13T17:31:02;100769.44;;;13.50;96.60
64644;BME280;51056;50.330;7.914;2022-10-13T17:34:07;100772.53;;;13.42;97.22
64644;BME280;51056;50.330;7.914;2022-10-13T17:37:11;100773.19;;;13.46;97.15
64644;BME280;51056;50.330;7.914;2022-10-13T17:40:16;100773.19;;;13.46;97.03
64644;BME280;51056;50.330;7.914;2022-10-13T17:43:19;100776.34;;;13.37;97.83
64644;BME280;51056;50.330;7.914;2022-10-13T17:46:24;100771.09;;;13.37;97.50
64644;BME280;51056;50.330;7.914;2022-10-13T17:49:30;100776.75;;;13.45;97.49
64644;BME280;51056;50.330;7.914;2022-10-13T17:52:33;100772.81;;;13.52;96.77
64644;BME280;51056;50.330;7.914;2022-10-13T17:55:37;100782.00;;;13.45;97.20
64644;BME280;51056;50.330;7.914;2022-10-13T17:58:41;100778.16;;;13.51;96.75
64644;BME280;51056;50.330;7.914;2022-10-13T18:01:48;100778.16;;;13.51;96.82
64644;BME280;51056;50.330;7.914;2022-10-13T18:04:52;100781.44;;;13.54;96.05
64644;BME280;51056;50.330;7.914;2022-10-13T18:07:56;100785.09;;;13.52;96.04
64644;BME280;51056;50.330;7.914;2022-10-13T18:11:07;100778.06;;;13.38;97.31
64644;BME280;51056;50.330;7.914;2022-10-13T18:14:12;100786.00;;;13.36;97.93
64644;BME280;51056;50.330;7.914;2022-10-13T18:17:17;100787.06;;;13.34;97.98